sensor_id;sensor_type;location;lat;lon;timestamp;pressure;altitude;pressure_sealevel;temperature
72278;BMP280;61204;49.980;8.358;2022-11-18T00:02:06;98776.38;;;8.60
72278;BMP280;61204;49.980;8.358;2022-11-18T00:04:31;98769.38;;;8.57
72278;BMP280;61204;49.980;8.358;2022-11-18T00:06:57;98780.38;;;8.59
72278;BMP280;61204;49.980;8.358;2022-11-18T00:09:22;98786.59;;;8.59
72278;BMP280;61204;49.980;8.358;2022-11-18T00:11:48;98786.59;;;8.59
72278;BMP280;61204;49.980;8.358;2022-11-18T00:14:32;98789.19;;;8.57
72278;BMP280;61204;49.980;8.358;2022-11-18T00:17:00;98793.16;;;8.54
72278;BMP280;61204;49.980;8.358;2022-11-18T00:19:36;98784.84;;;8.52
72278;BMP280;61204;49.980;8.358;2022-11-18T00:22:04;98793.75;;;8.53
72278;BMP280;61204;49.980;8.358;2022-11-18T00:24:32;98786.28;;;8.53
72278;BMP280;61204;49.980;8.358;2022-11-18T00:26:58;98783.53;;;8.53
72278;BMP280;61204;49.980;8.358;2022-11-18T00:29:25;98783.66;;;8.55
72278;BMP280;61204;49.980;8.358;2022-11-18T00:31:52;98779.69;;;8.58
72278;BMP280;61204;49.980;8.358;2022-11-18T00:34:19;98781.81;;;8.60
72278;BMP280;61204;49.980;8.358;2022-11-18T00:36:46;98780.50;;;8.61
72278;BMP280;61204;49.980;8.358;2022-11-18T00:39:14;98780.50;;;8.61
72278;BMP280;61204;49.980;8.358;2022-11-18T00:41:42;98779.09;;;8.60
72278;BMP280;61204;49.980;8.358;2022-11-18T00:44:27;98791.44;;;8.61
72278;BMP280;61204;49.980;8.358;2022-11-18T00:46:52;98780.63;;;8.63
72278;BMP280;61204;49.980;8.358;2022-11-18T00:49:19;98777.91;;;8.63
72278;BMP280;61204;49.980;8.358;2022-11-18T00:51:45;98777.78;;;8.61
72278;BMP280;61204;49.980;8.358;2022-11-18T00:54:10;98775.75;;;8.61
72278;BMP280;61204;49.980;8.358;2022-11-18T00:56:36;98776.94;;;8.58
72278;BMP280;61204;49.980;8.358;2022-11-18T00:59:02;98772.91;;;8.59
72278;BMP280;61204;49.980;8.358;2022-11-18T01:01:28;98790.72;;;8.60
72278;BMP280;61204;49.980;8.358;2022-11-18T01:03:54;98786.59;;;8.59
72278;BMP280;61204;49.980;8.358;2022-11-18T01:06:19;98800.94;;;8.60
72278;BMP280;61204;49.980;8.358;2022-11-18T01:08:45;98791.31;;;8.59
72278;BMP280;61204;49.980;8.358;2022-11-18T01:11:11;98792.63;;;8.58
72278;BMP280;61204;49.980;8.358;2022-11-18T01:13:57;98790.53;;;8.56
72278;BMP280;61204;49.980;8.358;2022-11-18T01:16:24;98808.94;;;8.56
72278;BMP280;61204;49.980;8.358;2022-11-18T01:18:52;98806.22;;;8.56
72278;BMP280;61204;49.980;8.358;2022-11-18T01:21:18;98804.69;;;8.53
72278;BMP280;61204;49.980;8.358;2022-11-18T01:23:44;98810.72;;;8.51
72278;BMP280;61204;49.980;8.358;2022-11-18T01:26:13;98807.28;;;8.51
72278;BMP280;61204;49.980;8.358;2022-11-18T01:28:41;98815.59;;;8.53
72278;BMP280;61204;49.980;8.358;2022-11-18T01:31:10;98819.75;;;8.54
72278;BMP280;61204;49.980;8.358;2022-11-18T01:33:40;98817.03;;;8.54
72278;BMP280;61204;49.980;8.358;2022-11-18T01:36:21;98821.34;;;8.59
72278;BMP280;61204;49.980;8.358;2022-11-18T01:38:50;98816.44;;;8.55
72278;BMP280;61204;49.980;8.358;2022-11-18T01:41:19;98821.78;;;8.53
72278;BMP280;61204;49.980;8.358;2022-11-18T01:43:59;98816.31;;;8.53
72278;BMP280;61204;49.980;8.358;2022-11-18T01:46:30;98819.66;;;8.52
72278;BMP280;61204;49.980;8.358;2022-11-18T01:51:48;98826.41;;;8.51
72278;BMP280;61204;49.980;8.358;2022-11-18T01:54:35;98831.88;;;8.51
72278;BMP280;61204;49.980;8.358;2022-11-18T01:57:10;98829.13;;;8.51
72278;BMP280;61204;49.980;8.358;2022-11-18T01:59:43;98830.44;;;8.50
72278;BMP280;61204;49.980;8.358;2022-11-18T02:02:13;98830.44;;;8.50
72278;BMP280;61204;49.980;8.358;2022-11-18T02:04:43;98820.13;;;8.48
72278;BMP280;61204;49.980;8.358;2022-11-18T02:07:13;98830.97;;;8.46
72278;BMP280;61204;49.980;8.358;2022-11-18T02:09:40;98830.25;;;8.46
72278;BMP280;61204;49.980;8.358;2022-11-18T02:12:07;98827.53;;;8.46
72278;BMP280;61204;49.980;8.358;2022-11-18T02:14:36;98831.66;;;8.47
72278;BMP280;61204;49.980;8.358;2022-11-18T02:17:32;98839.97;;;8.49
72278;BMP280;61204;49.980;8.358;2022-11-18T02:20:45;98835.91;;;8.50
72278;BMP280;61204;49.980;8.358;2022-11-18T02:23:54;98848.25;;;8.51
72278;BMP280;61204;49.980;8.358;2022-11-18T02:27:12;98843.50;;;8.51
72278;BMP280;61204;49.980;8.358;2022-11-18T02:30:04;98849.91;;;8.56
72278;BMP280;61204;49.980;8.358;2022-11-18T02:32:42;98849.22;;;8.55
72278;BMP280;61204;49.980;8.358;2022-11-18T02:35:32;98851.94;;;8.55
72278;BMP280;61204;49.980;8.358;2022-11-18T02:38:10;98845.22;;;8.58
72278;BMP280;61204;49.980;8.358;2022-11-18T02:40:54;98847.38;;;8.60
72278;BMP280;61204;49.980;8.358;2022-11-18T02:43:33;98857.19;;;8.65
72278;BMP280;61204;49.980;8.358;2022-11-18T02:46:11;98857.09;;;8.77
72278;BMP280;61204;49.980;8.358;2022-11-18T02:48:47;98866.50;;;8.74
72278;BMP280;61204;49.980;8.358;2022-11-18T02:51:22;98870.16;;;8.78
72278;BMP280;61204;49.980;8.358;2022-11-18T02:53:55;98870.16;;;8.78
72278;BMP280;61204;49.980;8.358;2022-11-18T02:56:27;98872.09;;;8.76
72278;BMP280;61204;49.980;8.358;2022-11-18T02:58:55;98874.41;;;8.81
72278;BMP280;61204;49.980;8.358;2022-11-18T03:01:25;98872.81;;;8.76
72278;BMP280;61204;49.980;8.358;2022-11-18T03:03:55;98869.75;;;8.70
72278;BMP280;61204;49.980;8.358;2022-11-18T03:06:42;98879.16;;;8.67
72278;BMP280;61204;49.980;8.358;2022-11-18T03:09:37;98875.81;;;8.68
72278;BMP280;61204;49.980;8.358;2022-11-18T03:12:21;98873.69;;;8.67
72278;BMP280;61204;49.980;8.358;2022-11-18T03:15:29;98875.72;;;8.66
72278;BMP280;61204;49.980;8.358;2022-11-18T03:18:21;98872.28;;;8.66
72278;BMP280;61204;49.980;8.358;2022-11-18T03:21:27;98873.59;;;8.65
72278;BMP280;61204;49.980;8.358;2022-11-18T03:24:19;98876.31;;;8.65
72278;BMP280;61204;49.980;8.358;2022-11-18T03:27:07;98877.63;;;8.64
72278;BMP280;61204;49.980;8.358;2022-11-18T03:29:48;98869.31;;;8.62
72278;BMP280;61204;49.980;8.358;2022-11-18T03:32:30;98871.56;;;8.65
72278;BMP280;61204;49.980;8.358;2022-11-18T03:35:06;98872.75;;;8.62
72278;BMP280;61204;49.980;8.358;2022-11-18T03:37:41;98878.72;;;8.59
72278;BMP280;61204;49.980;8.358;2022-11-18T03:40:17;98873.38;;;8.61
72278;BMP280;61204;49.980;8.358;2022-11-18T03:42:55;98874.06;;;8.61
72278;BMP280;61204;49.980;8.358;2022-11-18T03:45:33;98877.94;;;8.56
72278;BMP280;61204;49.980;8.358;2022-11-18T03:48:13;98874.56;;;8.58
72278;BMP280;61204;49.980;8.358;2022-11-18T03:50:50;98871.13;;;8.57
72278;BMP280;61204;49.980;8.358;2022-11-18T03:53:26;98879.31;;;8.57
72278;BMP280;61204;49.980;8.358;2022-11-18T03:56:21;98889.44;;;8.55
72278;BMP280;61204;49.980;8.358;2022-11-18T03:59:08;98886.00;;;8.54
72278;BMP280;61204;49.980;8.358;2022-11-18T04:04:48;98894.09;;;8.52
72278;BMP280;61204;49.980;8.358;2022-11-18T04:07:24;98898.84;;;8.52
72278;BMP280;61204;49.980;8.358;2022-11-18T04:10:19;98914.63;;;8.53
72278;BMP280;61204;49.980;8.358;2022-11-18T04:13:20;98916.25;;;8.58
72278;BMP280;61204;49.980;8.358;2022-11-18T04:15:52;98920.94;;;8.56
72278;BMP280;61204;49.980;8.358;2022-11-18T04:18:19;98925.16;;;8.59
72278;BMP280;61204;49.980;8.358;2022-11-18T04:20:45;98933.88;;;8.55
72278;BMP280;61204;49.980;8.358;2022-11-18T04:23:10;98924.16;;;8.52
72278;BMP280;61204;49.980;8.358;2022-11-18T04:25:36;98931.50;;;8.50
72278;BMP280;61204;49.980;8.358;2022-11-18T04:28:03;98927.88;;;8.45
72278;BMP280;61204;49.980;8.358;2022-11-18T04:30:29;98935.94;;;8.43
72278;BMP280;61204;49.980;8.358;2022-11-18T04:32:55;98944.72;;;8.41
72278;BMP280;61204;49.980;8.358;2022-11-18T04:35:22;98941.13;;;8.51
72278;BMP280;61204;49.980;8.358;2022-11-18T04:37:48;98939.69;;;8.50
72278;BMP280;61204;49.980;8.358;2022-11-18T04:40:14;98930.78;;;8.49
72278;BMP280;61204;49.980;8.358;2022-11-18T04:42:40;98935.56;;;8.49
72278;BMP280;61204;49.980;8.358;2022-11-18T04:45:06;98937.56;;;8.48
72278;BMP280;61204;49.980;8.358;2022-11-18T04:47:33;98938.84;;;8.47
72278;BMP280;61204;49.980;8.358;2022-11-18T04:49:59;98942.22;;;8.46
72278;BMP280;61204;49.980;8.358;2022-11-18T04:52:24;98947.06;;;8.47
72278;BMP280;61204;49.980;8.358;2022-11-18T04:54:50;98948.41;;;8.46
72278;BMP280;61204;49.980;8.358;2022-11-18T04:57:16;98953.97;;;8.48
72278;BMP280;61204;49.980;8.358;2022-11-18T04:59:41;98948.59;;;8.50
72278;BMP280;61204;49.980;8.358;2022-11-18T05:02:07;98954.66;;;8.49
72278;BMP280;61204;49.980;8.358;2022-11-18T05:04:33;98951.72;;;8.44
72278;BMP280;61204;49.980;8.358;2022-11-18T05:07:01;98957.06;;;8.42
72278;BMP280;61204;49.980;8.358;2022-11-18T05:09:29;98959.09;;;8.42
72278;BMP280;61204;49.980;8.358;2022-11-18T05:11:55;98960.28;;;8.39
72278;BMP280;61204;49.980;8.358;2022-11-18T05:14:39;98962.44;;;8.40
72278;BMP280;61204;49.980;8.358;2022-11-18T05:17:07;98965.25;;;8.42
72278;BMP280;61204;49.980;8.358;2022-11-18T05:19:36;98970.72;;;8.42
72278;BMP280;61204;49.980;8.358;2022-11-18T05:22:03;98970.00;;;8.42
72278;BMP280;61204;49.980;8.358;2022-11-18T05:24:29;98974.28;;;8.45
72278;BMP280;61204;49.980;8.358;2022-11-18T05:26:54;98972.25;;;8.46
72278;BMP280;61204;49.980;8.358;2022-11-18T05:29:20;98979.63;;;8.43
72278;BMP280;61204;49.980;8.358;2022-11-18T05:31:47;98982.34;;;8.43
72278;BMP280;61204;49.980;8.358;2022-11-18T05:34:14;98984.38;;;8.42
72278;BMP280;61204;49.980;8.358;2022-11-18T05:36:41;98981.66;;;8.42
72278;BMP280;61204;49.980;8.358;2022-11-18T05:39:07;98988.53;;;8.43
72278;BMP280;61204;49.980;8.358;2022-11-18T05:41:32;98991.25;;;8.43
72278;BMP280;61204;49.980;8.358;2022-11-18T05:44:17;98992.56;;;8.42
72278;BMP280;61204;49.980;8.358;2022-11-18T05:46:42;98987.72;;;8.41
72278;BMP280;61204;49.980;8.358;2022-11-18T05:49:08;99000.66;;;8.40
72278;BMP280;61204;49.980;8.358;2022-11-18T05:51:34;98997.19;;;8.40
72278;BMP280;61204;49.980;8.358;2022-11-18T05:54:03;99003.38;;;8.40
72278;BMP280;61204;49.980;8.358;2022-11-18T05:56:37;99005.50;;;8.42
72278;BMP280;61204;49.980;8.358;2022-11-18T05:59:06;99006.22;;;8.42
72278;BMP280;61204;49.980;8.358;2022-11-18T06:04:37;99009.66;;;8.43
72278;BMP280;61204;49.980;8.358;2022-11-18T06:07:19;99008.38;;;8.44
72278;BMP280;61204;49.980;8.358;2022-11-18T06:09:52;99012.53;;;8.45
72278;BMP280;61204;49.980;8.358;2022-11-18T06:12:25;99020.72;;;8.45
72278;BMP280;61204;49.980;8.358;2022-11-18T06:15:07;99027.59;;;8.46
72278;BMP280;61204;49.980;8.358;2022-11-18T06:17:43;99037.19;;;8.47
72278;BMP280;61204;49.980;8.358;2022-11-18T06:20:19;99026.47;;;8.51
72278;BMP280;61204;49.980;8.358;2022-11-18T06:22:47;99032.69;;;8.52
72278;BMP280;61204;49.980;8.358;2022-11-18T06:25:17;99040.13;;;8.51
72278;BMP280;61204;49.980;8.358;2022-11-18T06:27:44;99044.88;;;8.51
72278;BMP280;61204;49.980;8.358;2022-11-18T06:30:13;99041.59;;;8.52
72278;BMP280;61204;49.980;8.358;2022-11-18T06:32:39;99043.59;;;8.52
72278;BMP280;61204;49.980;8.358;2022-11-18T06:35:05;99050.34;;;8.51
72278;BMP280;61204;49.980;8.358;2022-11-18T06:37:32;99050.84;;;8.47
72278;BMP280;61204;49.980;8.358;2022-11-18T06:39:58;99057.97;;;8.52
72278;BMP280;61204;49.980;8.358;2022-11-18T06:42:26;99063.44;;;8.52
72278;BMP280;61204;49.980;8.358;2022-11-18T06:45:11;99068.91;;;8.52
72278;BMP280;61204;49.980;8.358;2022-11-18T06:47:36;99073.88;;;8.56
72278;BMP280;61204;49.980;8.358;2022-11-18T06:50:03;99077.31;;;8.56
72278;BMP280;61204;49.980;8.358;2022-11-18T06:52:30;99080.06;;;8.56
72278;BMP280;61204;49.980;8.358;2022-11-18T06:54:56;99085.53;;;8.56
72278;BMP280;61204;49.980;8.358;2022-11-18T06:57:21;99087.03;;;8.59
72278;BMP280;61204;49.980;8.358;2022-11-18T06:59:47;99090.47;;;8.60
72278;BMP280;61204;49.980;8.358;2022-11-18T07:02:12;99100.69;;;8.59
72278;BMP280;61204;49.980;8.358;2022-11-18T07:04:38;99101.50;;;8.62
72278;BMP280;61204;49.980;8.358;2022-11-18T07:07:08;99100.81;;;8.61
72278;BMP280;61204;49.980;8.358;2022-11-18T07:09:34;99104.94;;;8.62
72278;BMP280;61204;49.980;8.358;2022-11-18T07:12:02;99112.56;;;8.64
72278;BMP280;61204;49.980;8.358;2022-11-18T07:14:29;99118.84;;;8.66
72278;BMP280;61204;49.980;8.358;2022-11-18T07:16:55;99119.66;;;8.69
72278;BMP280;61204;49.980;8.358;2022-11-18T07:19:21;99116.66;;;8.77
72278;BMP280;61204;49.980;8.358;2022-11-18T07:21:47;99122.25;;;8.79
72278;BMP280;61204;49.980;8.358;2022-11-18T07:24:13;99124.50;;;8.82
72278;BMP280;61204;49.980;8.358;2022-11-18T07:26:40;99130.56;;;8.81
72278;BMP280;61204;49.980;8.358;2022-11-18T07:29:06;99131.88;;;8.80
72278;BMP280;61204;49.980;8.358;2022-11-18T07:31:34;99137.47;;;8.82
72278;BMP280;61204;49.980;8.358;2022-11-18T07:34:04;99146.81;;;8.90
72278;BMP280;61204;49.980;8.358;2022-11-18T07:36:31;99148.38;;;8.93
72278;BMP280;61204;49.980;8.358;2022-11-18T07:39:00;99147.97;;;8.99
72278;BMP280;61204;49.980;8.358;2022-11-18T07:41:29;99158.56;;;8.93
72278;BMP280;61204;49.980;8.358;2022-11-18T07:43:56;99161.91;;;8.91
72278;BMP280;61204;49.980;8.358;2022-11-18T07:46:35;99163.53;;;8.96
72278;BMP280;61204;49.980;8.358;2022-11-18T07:49:04;99163.03;;;9.00
72278;BMP280;61204;49.980;8.358;2022-11-18T07:51:34;99164.97;;;8.97
72278;BMP280;61204;49.980;8.358;2022-11-18T07:54:11;99164.97;;;8.97
72278;BMP280;61204;49.980;8.358;2022-11-18T07:56:38;99171.97;;;9.01
72278;BMP280;61204;49.980;8.358;2022-11-18T07:59:04;99174.69;;;9.01
72278;BMP280;61204;49.980;8.358;2022-11-18T08:01:31;99171.38;;;9.02
72278;BMP280;61204;49.980;8.358;2022-11-18T08:04:04;99179.09;;;9.06
72278;BMP280;61204;49.980;8.358;2022-11-18T08:06:36;99182.75;;;9.10
72278;BMP280;61204;49.980;8.358;2022-11-18T08:09:03;99180.59;;;9.20
72278;BMP280;61204;49.980;8.358;2022-11-18T08:11:30;99198.53;;;9.23
72278;BMP280;61204;49.980;8.358;2022-11-18T08:13:56;99202.47;;;9.20
72278;BMP280;61204;49.980;8.358;2022-11-18T08:16:23;99201.75;;;9.20
72278;BMP280;61204;49.980;8.358;2022-11-18T08:18:50;99208.63;;;9.21
72278;BMP280;61204;49.980;8.358;2022-11-18T08:21:18;99205.19;;;9.20
72278;BMP280;61204;49.980;8.358;2022-11-18T08:23:51;99213.41;;;9.20
72278;BMP280;61204;49.980;8.358;2022-11-18T08:26:19;99218.63;;;9.16
72278;BMP280;61204;49.980;8.358;2022-11-18T08:28:46;99224.09;;;9.16
72278;BMP280;61204;49.980;8.358;2022-11-18T08:31:21;99227.66;;;9.19
72278;BMP280;61204;49.980;8.358;2022-11-18T08:33:54;99228.25;;;9.17
72278;BMP280;61204;49.980;8.358;2022-11-18T08:36:29;99228.84;;;9.16
72278;BMP280;61204;49.980;8.358;2022-11-18T08:39:00;99240.50;;;9.16
72278;BMP280;61204;49.980;8.358;2022-11-18T08:41:33;99229.34;;;9.12
72278;BMP280;61204;49.980;8.358;2022-11-18T08:44:04;99245.25;;;9.16
72278;BMP280;61204;49.980;8.358;2022-11-18T08:46:34;99243.84;;;9.15
72278;BMP280;61204;49.980;8.358;2022-11-18T08:49:00;99247.91;;;9.14
72278;BMP280;61204;49.980;8.358;2022-11-18T08:51:26;99236.34;;;9.15
72278;BMP280;61204;49.980;8.358;2022-11-18T08:53:52;99242.53;;;9.16
72278;BMP280;61204;49.980;8.358;2022-11-18T08:56:20;99248.00;;;9.16
72278;BMP280;61204;49.980;8.358;2022-11-18T08:58:48;99255.13;;;9.21
72278;BMP280;61204;49.980;8.358;2022-11-18T09:01:15;99248.34;;;9.22
72278;BMP280;61204;49.980;8.358;2022-11-18T09:03:41;99261.03;;;9.29
72278;BMP280;61204;49.980;8.358;2022-11-18T09:06:17;99267.94;;;9.30
72278;BMP280;61204;49.980;8.358;2022-11-18T09:08:48;99261.47;;;9.37
72278;BMP280;61204;49.980;8.358;2022-11-18T09:11:18;99259.19;;;9.45
72278;BMP280;61204;49.980;8.358;2022-11-18T09:13:47;99263.34;;;9.46
72278;BMP280;61204;49.980;8.358;2022-11-18T09:16:16;99258.56;;;9.59
72278;BMP280;61204;49.980;8.358;2022-11-18T09:18:42;99263.16;;;9.68
72278;BMP280;61204;49.980;8.358;2022-11-18T09:21:08;99254.53;;;9.73
72278;BMP280;61204;49.980;8.358;2022-11-18T09:23:35;99263.81;;;9.80
72278;BMP280;61204;49.980;8.358;2022-11-18T09:26:07;99261.09;;;9.80
72278;BMP280;61204;49.980;8.358;2022-11-18T09:28:36;99258.22;;;9.78
72278;BMP280;61204;49.980;8.358;2022-11-18T09:31:07;99260.25;;;9.77
72278;BMP280;61204;49.980;8.358;2022-11-18T09:33:36;99265.44;;;9.85
72278;BMP280;61204;49.980;8.358;2022-11-18T09:36:05;99269.59;;;9.86
72278;BMP280;61204;49.980;8.358;2022-11-18T09:38:41;99272.19;;;9.96
72278;BMP280;61204;49.980;8.358;2022-11-18T09:44:07;99286.28;;;10.18
72278;BMP280;61204;49.980;8.358;2022-11-18T09:50:09;99290.88;;;10.27
72278;BMP280;61204;49.980;8.358;2022-11-18T09:55:49;99288.88;;;10.27
72278;BMP280;61204;49.980;8.358;2022-11-18T09:58:31;99290.69;;;10.37
72278;BMP280;61204;49.980;8.358;2022-11-18T10:01:00;99286.97;;;10.30
72278;BMP280;61204;49.980;8.358;2022-11-18T10:03:31;99296.88;;;10.23
72278;BMP280;61204;49.980;8.358;2022-11-18T10:09:03;99300.66;;;10.30
72278;BMP280;61204;49.980;8.358;2022-11-18T10:11:46;99305.63;;;10.33
72278;BMP280;61204;49.980;8.358;2022-11-18T10:15:07;99316.78;;;10.38
72278;BMP280;61204;49.980;8.358;2022-11-18T10:20:50;99309.09;;;10.48
72278;BMP280;61204;49.980;8.358;2022-11-18T10:23:32;99312.75;;;10.52
72278;BMP280;61204;49.980;8.358;2022-11-18T10:26:31;99318.03;;;10.62
72278;BMP280;61204;49.980;8.358;2022-11-18T10:29:03;99312.84;;;10.68
72278;BMP280;61204;49.980;8.358;2022-11-18T10:31:57;99317.13;;;10.71
72278;BMP280;61204;49.980;8.358;2022-11-18T10:34:26;99319.44;;;10.63
72278;BMP280;61204;49.980;8.358;2022-11-18T10:39:25;99329.13;;;10.64
72278;BMP280;61204;49.980;8.358;2022-11-18T10:41:59;99324.53;;;10.69
72278;BMP280;61204;49.980;8.358;2022-11-18T10:44:46;99324.84;;;10.75
72278;BMP280;61204;49.980;8.358;2022-11-18T10:47:25;99324.53;;;10.82
72278;BMP280;61204;49.980;8.358;2022-11-18T10:50:01;99325.47;;;10.87
72278;BMP280;61204;49.980;8.358;2022-11-18T10:52:52;99327.66;;;11.04
72278;BMP280;61204;49.980;8.358;2022-11-18T10:57:47;99332.44;;;11.17
72278;BMP280;61204;49.980;8.358;2022-11-18T11:00:43;99337.31;;;11.19
72278;BMP280;61204;49.980;8.358;2022-11-18T11:03:22;99334.41;;;11.31
72278;BMP280;61204;49.980;8.358;2022-11-18T11:06:13;99335.63;;;11.41
72278;BMP280;61204;49.980;8.358;2022-11-18T11:08:59;99336.13;;;11.52
72278;BMP280;61204;49.980;8.358;2022-11-18T11:11:35;99334.66;;;11.64
72278;BMP280;61204;49.980;8.358;2022-11-18T11:14:27;99330.66;;;11.67
72278;BMP280;61204;49.980;8.358;2022-11-18T11:17:25;99335.69;;;11.87
72278;BMP280;61204;49.980;8.358;2022-11-18T11:22:47;99342.38;;;11.84
72278;BMP280;61204;49.980;8.358;2022-11-18T11:25:20;99338.06;;;11.79
72278;BMP280;61204;49.980;8.358;2022-11-18T11:35:21;99340.16;;;12.10
72278;BMP280;61204;49.980;8.358;2022-11-18T11:37:57;99330.59;;;12.26
72278;BMP280;61204;49.980;8.358;2022-11-18T11:44:22;99348.03;;;12.80
72278;BMP280;61204;49.980;8.358;2022-11-18T11:47:24;99339.97;;;13.02
72278;BMP280;61204;49.980;8.358;2022-11-18T11:50:27;99335.03;;;12.99
72278;BMP280;61204;49.980;8.358;2022-11-18T11:53:31;99344.75;;;13.02
72278;BMP280;61204;49.980;8.358;2022-11-18T11:56:33;99338.97;;;13.11
72278;BMP280;61204;49.980;8.358;2022-11-18T11:59:44;99348.06;;;12.98
72278;BMP280;61204;49.980;8.358;2022-11-18T12:08:22;99341.94;;;13.00
72278;BMP280;61204;49.980;8.358;2022-11-18T12:10:59;99351.03;;;13.04
72278;BMP280;61204;49.980;8.358;2022-11-18T12:14:06;99350.53;;;13.26
72278;BMP280;61204;49.980;8.358;2022-11-18T12:17:16;99354.63;;;13.42
72278;BMP280;61204;49.980;8.358;2022-11-18T12:19:56;99357.00;;;13.50
72278;BMP280;61204;49.980;8.358;2022-11-18T12:22:22;99361.09;;;14.42
72278;BMP280;61204;49.980;8.358;2022-11-18T12:24:47;99363.78;;;14.60
72278;BMP280;61204;49.980;8.358;2022-11-18T12:32:37;99360.69;;;15.57
72278;BMP280;61204;49.980;8.358;2022-11-18T12:40:40;99354.00;;;15.64
72278;BMP280;61204;49.980;8.358;2022-11-18T12:51:59;99354.19;;;17.00
72278;BMP280;61204;49.980;8.358;2022-11-18T12:54:37;99367.16;;;16.40
72278;BMP280;61204;49.980;8.358;2022-11-18T12:57:42;99361.06;;;15.93
72278;BMP280;61204;49.980;8.358;2022-11-18T13:00:27;99355.13;;;15.55
72278;BMP280;61204;49.980;8.358;2022-11-18T13:03:00;99369.28;;;15.91
72278;BMP280;61204;49.980;8.358;2022-11-18T13:05:28;99357.75;;;15.75
72278;BMP280;61204;49.980;8.358;2022-11-18T13:08:02;99368.38;;;15.15
72278;BMP280;61204;49.980;8.358;2022-11-18T13:13:34;99361.94;;;15.08
72278;BMP280;61204;49.980;8.358;2022-11-18T13:16:16;99364.19;;;15.82
72278;BMP280;61204;49.980;8.358;2022-11-18T13:19:07;99359.81;;;15.74
72278;BMP280;61204;49.980;8.358;2022-11-18T13:21:33;99364.97;;;16.34
72278;BMP280;61204;49.980;8.358;2022-11-18T13:24:19;99350.66;;;16.70
72278;BMP280;61204;49.980;8.358;2022-11-18T13:26:52;99361.47;;;16.87
72278;BMP280;61204;49.980;8.358;2022-11-18T13:34:54;99357.94;;;17.13
72278;BMP280;61204;49.980;8.358;2022-11-18T13:37:34;99366.75;;;16.77
72278;BMP280;61204;49.980;8.358;2022-11-18T13:40:00;99365.66;;;16.60
72278;BMP280;61204;49.980;8.358;2022-11-18T13:42:31;99365.75;;;16.92
72278;BMP280;61204;49.980;8.358;2022-11-18T13:44:58;99367.31;;;17.00
72278;BMP280;61204;49.980;8.358;2022-11-18T13:47:32;99367.75;;;16.62
72278;BMP280;61204;49.980;8.358;2022-11-18T13:52:49;99351.81;;;15.15
72278;BMP280;61204;49.980;8.358;2022-11-18T13:55:37;99373.06;;;14.69
72278;BMP280;61204;49.980;8.358;2022-11-18T13:58:26;99367.31;;;14.63
72278;BMP280;61204;49.980;8.358;2022-11-18T14:01:25;99374.91;;;15.04
72278;BMP280;61204;49.980;8.358;2022-11-18T14:04:01;99376.66;;;15.37
72278;BMP280;61204;49.980;8.358;2022-11-18T14:06:36;99378.25;;;15.68
72278;BMP280;61204;49.980;8.358;2022-11-18T14:09:19;99379.41;;;15.83
72278;BMP280;61204;49.980;8.358;2022-11-18T14:14:34;99375.41;;;15.42
72278;BMP280;61204;49.980;8.358;2022-11-18T14:17:24;99380.97;;;15.20
72278;BMP280;61204;49.980;8.358;2022-11-18T14:19:56;99378.19;;;14.98
72278;BMP280;61204;49.980;8.358;2022-11-18T14:22:28;99386.72;;;15.06
72278;BMP280;61204;49.980;8.358;2022-11-18T14:24:55;99392.59;;;15.17
72278;BMP280;61204;49.980;8.358;2022-11-18T14:30:32;99400.41;;;14.63
72278;BMP280;61204;49.980;8.358;2022-11-18T14:33:16;99404.72;;;14.10
72278;BMP280;61204;49.980;8.358;2022-11-18T14:38:50;99399.66;;;13.15
72278;BMP280;61204;49.980;8.358;2022-11-18T14:41:17;99404.31;;;12.95
72278;BMP280;61204;49.980;8.358;2022-11-18T14:44:05;99401.34;;;12.73
72278;BMP280;61204;49.980;8.358;2022-11-18T14:46:33;99406.66;;;12.53
72278;BMP280;61204;49.980;8.358;2022-11-18T14:49:03;99413.75;;;12.43
72278;BMP280;61204;49.980;8.358;2022-11-18T14:51:37;99409.66;;;12.44
72278;BMP280;61204;49.980;8.358;2022-11-18T14:54:02;99417.25;;;12.14
72278;BMP280;61204;49.980;8.358;2022-11-18T14:56:30;99417.41;;;12.02
72278;BMP280;61204;49.980;8.358;2022-11-18T14:58:58;99419.28;;;12.13
72278;BMP280;61204;49.980;8.358;2022-11-18T15:01:25;99418.09;;;12.02
72278;BMP280;61204;49.980;8.358;2022-11-18T15:03:53;99418.38;;;11.79
72278;BMP280;61204;49.980;8.358;2022-11-18T15:06:19;99418.63;;;11.69
72278;BMP280;61204;49.980;8.358;2022-11-18T15:08:49;99423.53;;;11.57
72278;BMP280;61204;49.980;8.358;2022-11-18T15:11:17;99425.06;;;11.47
72278;BMP280;61204;49.980;8.358;2022-11-18T15:13:46;99414.19;;;11.35
72278;BMP280;61204;49.980;8.358;2022-11-18T15:16:13;99423.44;;;11.14
72278;BMP280;61204;49.980;8.358;2022-11-18T15:18:58;99421.94;;;10.97
72278;BMP280;61204;49.980;8.358;2022-11-18T15:21:27;99427.31;;;10.95
72278;BMP280;61204;49.980;8.358;2022-11-18T15:23:53;99422.94;;;10.90
72278;BMP280;61204;49.980;8.358;2022-11-18T15:26:22;99427.28;;;10.81
72278;BMP280;61204;49.980;8.358;2022-11-18T15:28:51;99430.31;;;10.74
72278;BMP280;61204;49.980;8.358;2022-11-18T15:31:19;99431.44;;;10.69
72278;BMP280;61204;49.980;8.358;2022-11-18T15:33:47;99442.28;;;10.67
72278;BMP280;61204;49.980;8.358;2022-11-18T15:36:23;99433.00;;;10.46
72278;BMP280;61204;49.980;8.358;2022-11-18T15:38:52;99435.59;;;10.30
72278;BMP280;61204;49.980;8.358;2022-11-18T15:41:24;99439.66;;;10.18
72278;BMP280;61204;49.980;8.358;2022-11-18T15:43:54;99432.13;;;10.04
72278;BMP280;61204;49.980;8.358;2022-11-18T15:46:23;99441.81;;;10.19
72278;BMP280;61204;49.980;8.358;2022-11-18T15:48:52;99433.19;;;10.25
72278;BMP280;61204;49.980;8.358;2022-11-18T15:51:20;99433.88;;;10.37
72278;BMP280;61204;49.980;8.358;2022-11-18T15:53:46;99440.50;;;10.20
72278;BMP280;61204;49.980;8.358;2022-11-18T15:58:59;99442.66;;;10.22
72278;BMP280;61204;49.980;8.358;2022-11-18T16:01:33;99443.53;;;10.38
72278;BMP280;61204;49.980;8.358;2022-11-18T16:04:02;99457.97;;;10.27
72278;BMP280;61204;49.980;8.358;2022-11-18T16:06:31;99458.34;;;10.21
72278;BMP280;61204;49.980;8.358;2022-11-18T16:08:58;99465.63;;;10.17
72278;BMP280;61204;49.980;8.358;2022-11-18T16:11:27;99467.59;;;10.14
72278;BMP280;61204;49.980;8.358;2022-11-18T16:14:14;99472.09;;;10.10
72278;BMP280;61204;49.980;8.358;2022-11-18T16:16:44;99470.56;;;10.06
72278;BMP280;61204;49.980;8.358;2022-11-18T16:19:15;99466.03;;;10.11
72278;BMP280;61204;49.980;8.358;2022-11-18T16:21:46;99476.38;;;10.13
72278;BMP280;61204;49.980;8.358;2022-11-18T16:24:17;99486.31;;;9.94
72278;BMP280;61204;49.980;8.358;2022-11-18T16:26:47;99479.44;;;9.82